sensor_id;sensor_type;location;lat;lon;timestamp;pressure;altitude;pressure_sealevel;temperature;humidity
60854;BME280;48554;50.766;2.900;2022-09-16T00:02:08;100751.91;;;20.34;53.29
60854;BME280;48554;50.766;2.900;2022-09-16T00:04:29;100750.59;;;20.36;53.45
60854;BME280;48554;50.766;2.900;2022-09-16T00:06:49;100754.88;;;20.37;53.18
60854;BME280;48554;50.766;2.900;2022-09-16T00:09:09;100754.31;;;20.35;53.08
60854;BME280;48554;50.766;2.900;2022-09-16T00:11:31;100752.97;;;20.33;53.03
60854;BME280;48554;50.766;2.900;2022-09-16T00:13:51;100751.38;;;20.31;53.27
60854;BME280;48554;50.766;2.900;2022-09-16T00:16:18;100756.75;;;20.31;53.16
60854;BME280;48554;50.766;2.900;2022-09-16T00:18:38;100764.00;;;20.31;53.11
60854;BME280;48554;50.766;2.900;2022-09-16T00:20:59;100765.09;;;20.30;52.98
60854;BME280;48554;50.766;2.900;2022-09-16T00:23:19;100761.31;;;20.31;53.22
60854;BME280;48554;50.766;2.900;2022-09-16T00:25:40;100765.09;;;20.30;53.08
60854;BME280;48554;50.766;2.900;2022-09-16T00:28:00;100758.91;;;20.29;52.89
60854;BME280;48554;50.766;2.900;2022-09-16T00:30:20;100754.56;;;20.28;53.03
60854;BME280;48554;50.766;2.900;2022-09-16T00:32:41;100755.66;;;20.27;52.98
60854;BME280;48554;50.766;2.900;2022-09-16T00:35:01;100758.09;;;20.29;53.05
60854;BME280;48554;50.766;2.900;2022-09-16T00:37:21;100755.91;;;20.26;52.89
60854;BME280;48554;50.766;2.900;2022-09-16T00:39:42;100750.28;;;20.27;52.89
60854;BME280;48554;50.766;2.900;2022-09-16T00:42:03;100751.38;;;20.26;52.66
60854;BME280;48554;50.766;2.900;2022-09-16T00:47:19;100755.38;;;20.24;52.77
60854;BME280;48554;50.766;2.900;2022-09-16T00:49:40;100759.44;;;20.26;52.61
60854;BME280;48554;50.766;2.900;2022-09-16T00:52:04;100757.00;;;20.25;52.69
60854;BME280;48554;50.766;2.900;2022-09-16T00:54:25;100751.63;;;20.25;52.77
60854;BME280;48554;50.766;2.900;2022-09-16T00:56:49;100756.19;;;20.24;52.72
60854;BME280;48554;50.766;2.900;2022-09-16T01:01:39;100765.59;;;20.22;52.76
60854;BME280;48554;50.766;2.900;2022-09-16T01:04:09;100757.53;;;20.22;52.43
60854;BME280;48554;50.766;2.900;2022-09-16T01:06:36;100758.88;;;20.19;52.41
60854;BME280;48554;50.766;2.900;2022-09-16T01:08:57;100752.66;;;20.19;52.38
60854;BME280;48554;50.766;2.900;2022-09-16T01:11:18;100751.88;;;20.18;52.26
60854;BME280;48554;50.766;2.900;2022-09-16T01:13:39;100752.66;;;20.19;52.34
60854;BME280;48554;50.766;2.900;2022-09-16T01:16:08;100754.56;;;20.18;52.31
60854;BME280;48554;50.766;2.900;2022-09-16T01:37:34;100754.53;;;20.13;51.81
60854;BME280;48554;50.766;2.900;2022-09-16T01:40:06;100750.50;;;20.10;52.02
60854;BME280;48554;50.766;2.900;2022-09-16T01:42:58;100754.28;;;20.09;51.89
60854;BME280;48554;50.766;2.900;2022-09-16T01:53:41;100754.22;;;20.04;51.83
60854;BME280;48554;50.766;2.900;2022-09-16T01:56:02;100747.78;;;20.05;51.85
60854;BME280;48554;50.766;2.900;2022-09-16T01:58:55;100740.78;;;20.04;51.87
60854;BME280;48554;50.766;2.900;2022-09-16T02:01:24;100746.44;;;20.03;51.44
60854;BME280;48554;50.766;2.900;2022-09-16T02:03:51;100754.75;;;20.01;51.57
60854;BME280;48554;50.766;2.900;2022-09-16T02:06:19;100753.16;;;20.00;51.43
60854;BME280;48554;50.766;2.900;2022-09-16T02:08:53;100755.31;;;19.98;51.38
60854;BME280;48554;50.766;2.900;2022-09-16T02:11:16;100751.00;;;19.97;51.47
60854;BME280;48554;50.766;2.900;2022-09-16T02:13:48;100752.63;;;19.98;51.43
60854;BME280;48554;50.766;2.900;2022-09-16T02:16:19;100753.69;;;19.97;51.34
60854;BME280;48554;50.766;2.900;2022-09-16T02:18:42;100754.75;;;19.96;51.38
60854;BME280;48554;50.766;2.900;2022-09-16T02:21:06;100755.84;;;19.95;51.25
60854;BME280;48554;50.766;2.900;2022-09-16T02:23:33;100753.16;;;19.95;51.04
60854;BME280;48554;50.766;2.900;2022-09-16T02:25:56;100749.66;;;19.95;51.19
60854;BME280;48554;50.766;2.900;2022-09-16T02:28:29;100755.28;;;19.93;51.14
60854;BME280;48554;50.766;2.900;2022-09-16T02:30:55;100753.66;;;19.92;51.11
60854;BME280;48554;50.766;2.900;2022-09-16T02:33:18;100754.47;;;19.93;51.23
60854;BME280;48554;50.766;2.900;2022-09-16T02:35:40;100757.41;;;19.91;51.19
60854;BME280;48554;50.766;2.900;2022-09-16T02:38:02;100762.81;;;19.91;51.36
60854;BME280;48554;50.766;2.900;2022-09-16T02:40:36;100760.38;;;19.89;51.31
60854;BME280;48554;50.766;2.900;2022-09-16T02:42:58;100759.28;;;19.85;51.15
60854;BME280;48554;50.766;2.900;2022-09-16T02:45:25;100756.31;;;19.87;51.12
60854;BME280;48554;50.766;2.900;2022-09-16T02:50:22;100753.91;;;19.85;51.31
60854;BME280;48554;50.766;2.900;2022-09-16T02:52:50;100755.53;;;19.86;50.95
60854;BME280;48554;50.766;2.900;2022-09-16T02:57:41;100753.13;;;19.85;51.02
60854;BME280;48554;50.766;2.900;2022-09-16T03:00:03;100755.81;;;19.85;51.16
60854;BME280;48554;50.766;2.900;2022-09-16T03:02:24;100747.72;;;19.85;51.02
60854;BME280;48554;50.766;2.900;2022-09-16T03:04:44;100747.72;;;19.85;51.01
60854;BME280;48554;50.766;2.900;2022-09-16T03:07:07;100749.34;;;19.86;50.99
60854;BME280;48554;50.766;2.900;2022-09-16T03:09:28;100740.72;;;19.84;51.09
60854;BME280;48554;50.766;2.900;2022-09-16T03:14:49;100747.19;;;19.83;50.92
60854;BME280;48554;50.766;2.900;2022-09-16T03:25:22;100739.38;;;19.81;50.82
60854;BME280;48554;50.766;2.900;2022-09-16T03:27:50;100745.00;;;19.80;50.77
60854;BME280;48554;50.766;2.900;2022-09-16T03:30:12;100736.13;;;19.79;50.74
60854;BME280;48554;50.766;2.900;2022-09-16T03:32:36;100738.25;;;19.77;50.80
60854;BME280;48554;50.766;2.900;2022-09-16T03:35:15;100743.38;;;19.79;50.75
60854;BME280;48554;50.766;2.900;2022-09-16T03:37:38;100741.78;;;19.78;50.79
60854;BME280;48554;50.766;2.900;2022-09-16T03:40:07;100742.28;;;19.75;50.56
60854;BME280;48554;50.766;2.900;2022-09-16T03:42:28;100742.03;;;19.76;50.73
60854;BME280;48554;50.766;2.900;2022-09-16T03:44:49;100742.28;;;19.75;50.66
60854;BME280;48554;50.766;2.900;2022-09-16T03:47:09;100742.28;;;19.75;50.83
60854;BME280;48554;50.766;2.900;2022-09-16T03:49:29;100743.13;;;19.75;50.80
60854;BME280;48554;50.766;2.900;2022-09-16T03:51:49;100733.16;;;19.76;50.71
60854;BME280;48554;50.766;2.900;2022-09-16T03:54:10;100741.47;;;19.74;50.63
60854;BME280;48554;50.766;2.900;2022-09-16T03:56:30;100739.06;;;19.73;50.68
60854;BME280;48554;50.766;2.900;2022-09-16T03:58:50;100728.28;;;19.73;50.61
60854;BME280;48554;50.766;2.900;2022-09-16T04:01:11;100732.06;;;19.72;50.29
60854;BME280;48554;50.766;2.900;2022-09-16T04:03:31;100730.47;;;19.71;50.61
60854;BME280;48554;50.766;2.900;2022-09-16T04:05:52;100738.25;;;19.72;50.69
60854;BME280;48554;50.766;2.900;2022-09-16T04:08:13;100739.34;;;19.71;50.52
60854;BME280;48554;50.766;2.900;2022-09-16T04:10:33;100742.25;;;19.70;50.41
60854;BME280;48554;50.766;2.900;2022-09-16T04:12:56;100735.00;;;19.70;50.32
60854;BME280;48554;50.766;2.900;2022-09-16T04:15:16;100739.59;;;19.70;50.66
60854;BME280;48554;50.766;2.900;2022-09-16T04:17:36;100731.78;;;19.68;50.40
60854;BME280;48554;50.766;2.900;2022-09-16T04:19:57;100736.34;;;19.67;50.27
60854;BME280;48554;50.766;2.900;2022-09-16T04:22:17;100741.16;;;19.65;50.33
60854;BME280;48554;50.766;2.900;2022-09-16T04:24:37;100736.84;;;19.64;50.36
60854;BME280;48554;50.766;2.900;2022-09-16T04:26:58;100736.84;;;19.64;50.36
60854;BME280;48554;50.766;2.900;2022-09-16T04:29:18;100738.47;;;19.65;50.23
60854;BME280;48554;50.766;2.900;2022-09-16T04:31:38;100745.47;;;19.66;50.49
60854;BME280;48554;50.766;2.900;2022-09-16T04:34:00;100740.34;;;19.65;50.32
60854;BME280;48554;50.766;2.900;2022-09-16T04:36:21;100738.47;;;19.65;50.27
60854;BME280;48554;50.766;2.900;2022-09-16T04:38:42;100739.53;;;19.64;50.17
60854;BME280;48554;50.766;2.900;2022-09-16T04:41:25;100738.47;;;19.65;50.35
60854;BME280;48554;50.766;2.900;2022-09-16T04:43:48;100739.78;;;19.63;50.35
60854;BME280;48554;50.766;2.900;2022-09-16T04:46:09;100741.41;;;19.64;50.37
60854;BME280;48554;50.766;2.900;2022-09-16T04:48:29;100734.69;;;19.61;50.32
60854;BME280;48554;50.766;2.900;2022-09-16T04:50:51;100738.44;;;19.60;50.17
60854;BME280;48554;50.766;2.900;2022-09-16T04:53:11;100738.69;;;19.59;50.44
60854;BME280;48554;50.766;2.900;2022-09-16T04:55:31;100737.91;;;19.58;50.24
60854;BME280;48554;50.766;2.900;2022-09-16T04:57:51;100741.91;;;19.56;50.28
60854;BME280;48554;50.766;2.900;2022-09-16T05:00:12;100743.53;;;19.57;50.45
60854;BME280;48554;50.766;2.900;2022-09-16T05:02:32;100743.53;;;19.57;50.55
60854;BME280;48554;50.766;2.900;2022-09-16T05:04:53;100739.22;;;19.56;50.19
60854;BME280;48554;50.766;2.900;2022-09-16T05:07:13;100736.78;;;19.54;50.11
60854;BME280;48554;50.766;2.900;2022-09-16T05:09:33;100736.78;;;19.54;50.28
60854;BME280;48554;50.766;2.900;2022-09-16T05:11:53;100743.78;;;19.55;50.09
60854;BME280;48554;50.766;2.900;2022-09-16T05:14:16;100731.97;;;19.56;50.53
60854;BME280;48554;50.766;2.900;2022-09-16T05:16:37;100734.94;;;19.60;50.59
60854;BME280;48554;50.766;2.900;2022-09-16T05:18:58;100741.09;;;19.60;50.88
60854;BME280;48554;50.766;2.900;2022-09-16T05:21:20;100742.75;;;19.61;50.93
60854;BME280;48554;50.766;2.900;2022-09-16T05:23:41;100743.78;;;19.60;50.90
60854;BME280;48554;50.766;2.900;2022-09-16T05:26:04;100743.78;;;19.60;50.68
60854;BME280;48554;50.766;2.900;2022-09-16T05:28:24;100736.56;;;19.61;50.66
60854;BME280;48554;50.766;2.900;2022-09-16T05:30:44;100736.03;;;19.59;50.71
60854;BME280;48554;50.766;2.900;2022-09-16T05:33:05;100743.28;;;19.58;50.67
60854;BME280;48554;50.766;2.900;2022-09-16T05:35:25;100736.25;;;19.57;50.84
60854;BME280;48554;50.766;2.900;2022-09-16T05:37:48;100740.03;;;19.56;51.34
60854;BME280;48554;50.766;2.900;2022-09-16T05:40:08;100739.50;;;19.59;51.99
60854;BME280;48554;50.766;2.900;2022-09-16T05:42:29;100736.84;;;19.64;51.63
60854;BME280;48554;50.766;2.900;2022-09-16T05:44:49;100746.03;;;19.69;51.81
60854;BME280;48554;50.766;2.900;2022-09-16T05:47:09;100751.97;;;19.71;53.24
60854;BME280;48554;50.766;2.900;2022-09-16T05:49:29;100753.31;;;19.73;52.70
60854;BME280;48554;50.766;2.900;2022-09-16T05:51:50;100754.69;;;19.76;54.43
60854;BME280;48554;50.766;2.900;2022-09-16T05:54:11;100749.31;;;19.76;54.37
60854;BME280;48554;50.766;2.900;2022-09-16T05:56:32;100746.34;;;19.77;53.14
60854;BME280;48554;50.766;2.900;2022-09-16T05:58:54;100750.38;;;19.80;54.10
60854;BME280;48554;50.766;2.900;2022-09-16T06:01:17;100754.16;;;19.79;54.59
60854;BME280;48554;50.766;2.900;2022-09-16T06:03:39;100745.53;;;19.77;54.67
60854;BME280;48554;50.766;2.900;2022-09-16T06:06:10;100744.19;;;19.79;54.21
60854;BME280;48554;50.766;2.900;2022-09-16T06:08:32;100748.78;;;19.79;54.03
60854;BME280;48554;50.766;2.900;2022-09-16T06:10:53;100751.19;;;19.75;54.08
60854;BME280;48554;50.766;2.900;2022-09-16T06:13:13;100746.06;;;19.74;53.72
60854;BME280;48554;50.766;2.900;2022-09-16T06:15:34;100754.94;;;19.74;53.62
60854;BME280;48554;50.766;2.900;2022-09-16T06:17:54;100754.09;;;19.69;53.49
60854;BME280;48554;50.766;2.900;2022-09-16T06:20:14;100754.91;;;19.69;53.82
60854;BME280;48554;50.766;2.900;2022-09-16T06:22:34;100756.22;;;19.66;53.46
60854;BME280;48554;50.766;2.900;2022-09-16T06:24:55;100753.53;;;19.66;53.27
60854;BME280;48554;50.766;2.900;2022-09-16T06:27:15;100763.72;;;19.64;53.13
60854;BME280;48554;50.766;2.900;2022-09-16T06:29:35;100765.59;;;19.64;53.07
60854;BME280;48554;50.766;2.900;2022-09-16T06:31:55;100764.53;;;19.65;53.07
60854;BME280;48554;50.766;2.900;2022-09-16T06:34:16;100759.97;;;19.65;52.91
60854;BME280;48554;50.766;2.900;2022-09-16T06:36:37;100751.38;;;19.63;52.91
60854;BME280;48554;50.766;2.900;2022-09-16T06:38:58;100755.09;;;19.62;52.74
60854;BME280;48554;50.766;2.900;2022-09-16T06:41:19;100755.09;;;19.62;52.63
60854;BME280;48554;50.766;2.900;2022-09-16T06:43:40;100757.22;;;19.60;52.65
60854;BME280;48554;50.766;2.900;2022-09-16T06:46:07;100762.38;;;19.62;52.49
60854;BME280;48554;50.766;2.900;2022-09-16T06:48:30;100761.81;;;19.60;52.52
60854;BME280;48554;50.766;2.900;2022-09-16T06:50:57;100768.50;;;19.57;52.43
60854;BME280;48554;50.766;2.900;2022-09-16T06:53:17;100770.16;;;19.58;52.46
60854;BME280;48554;50.766;2.900;2022-09-16T06:55:39;100768.50;;;19.57;52.14
60854;BME280;48554;50.766;2.900;2022-09-16T06:58:00;100766.63;;;19.58;52.28
60854;BME280;48554;50.766;2.900;2022-09-16T07:00:20;100773.88;;;19.57;52.22
60854;BME280;48554;50.766;2.900;2022-09-16T07:02:40;100778.47;;;19.57;52.18
60854;BME280;48554;50.766;2.900;2022-09-16T07:05:01;100779.25;;;19.57;52.30
60854;BME280;48554;50.766;2.900;2022-09-16T07:07:21;100776.31;;;19.59;52.11
60854;BME280;48554;50.766;2.900;2022-09-16T07:09:41;100779.25;;;19.57;52.26
60854;BME280;48554;50.766;2.900;2022-09-16T07:12:02;100777.91;;;19.55;52.11
60854;BME280;48554;50.766;2.900;2022-09-16T07:14:22;100776.03;;;19.55;52.11
60854;BME280;48554;50.766;2.900;2022-09-16T07:16:43;100782.47;;;19.54;52.11
60854;BME280;48554;50.766;2.900;2022-09-16T07:19:03;100784.09;;;19.55;52.09
60854;BME280;48554;50.766;2.900;2022-09-16T07:21:25;100783.84;;;19.57;51.99
60854;BME280;48554;50.766;2.900;2022-09-16T07:23:46;100785.72;;;19.56;51.98
60854;BME280;48554;50.766;2.900;2022-09-16T07:26:09;100791.91;;;19.57;51.98
60854;BME280;48554;50.766;2.900;2022-09-16T07:28:31;100793.25;;;19.59;51.97
60854;BME280;48554;50.766;2.900;2022-09-16T07:30:51;100796.50;;;19.61;52.02
60854;BME280;48554;50.766;2.900;2022-09-16T07:33:11;100789.53;;;19.65;52.01
60854;BME280;48554;50.766;2.900;2022-09-16T07:35:31;100794.41;;;19.69;51.96
60854;BME280;48554;50.766;2.900;2022-09-16T07:37:52;100785.56;;;19.68;52.06
60854;BME280;48554;50.766;2.900;2022-09-16T07:40:12;100799.53;;;19.70;52.23
60854;BME280;48554;50.766;2.900;2022-09-16T07:42:32;100792.28;;;19.71;52.02
60854;BME280;48554;50.766;2.900;2022-09-16T07:44:52;100796.56;;;19.72;51.95
60854;BME280;48554;50.766;2.900;2022-09-16T07:47:13;100806.81;;;19.75;52.05
60854;BME280;48554;50.766;2.900;2022-09-16T07:49:33;100801.44;;;19.75;52.09
60854;BME280;48554;50.766;2.900;2022-09-16T07:51:53;100800.09;;;19.77;52.13
60854;BME280;48554;50.766;2.900;2022-09-16T07:54:16;100814.91;;;19.80;52.06
60854;BME280;48554;50.766;2.900;2022-09-16T07:56:37;100807.38;;;19.82;52.12
60854;BME280;48554;50.766;2.900;2022-09-16T07:58:59;100813.56;;;19.82;52.36
60854;BME280;48554;50.766;2.900;2022-09-16T08:01:20;100800.94;;;19.83;52.35
60854;BME280;48554;50.766;2.900;2022-09-16T08:03:42;100809.03;;;19.83;52.21
60854;BME280;48554;50.766;2.900;2022-09-16T08:06:10;100803.34;;;19.79;52.26
60854;BME280;48554;50.766;2.900;2022-09-16T08:08:31;100812.72;;;19.77;51.77
60854;BME280;48554;50.766;2.900;2022-09-16T08:10:55;100811.91;;;19.71;51.53
60854;BME280;48554;50.766;2.900;2022-09-16T08:13:15;100812.72;;;19.72;51.54
60854;BME280;48554;50.766;2.900;2022-09-16T08:15:36;100819.16;;;19.71;51.20
60854;BME280;48554;50.766;2.900;2022-09-16T08:17:56;100819.66;;;19.67;51.40
60854;BME280;48554;50.766;2.900;2022-09-16T08:20:16;100816.72;;;19.69;51.43
60854;BME280;48554;50.766;2.900;2022-09-16T08:22:36;100827.16;;;19.65;51.42
60854;BME280;48554;50.766;2.900;2022-09-16T08:24:57;100826.09;;;19.66;51.42
60854;BME280;48554;50.766;2.900;2022-09-16T08:27:17;100820.97;;;19.65;51.28
60854;BME280;48554;50.766;2.900;2022-09-16T08:29:37;100822.03;;;19.64;51.26
60854;BME280;48554;50.766;2.900;2022-09-16T08:31:57;100831.16;;;19.63;51.24
60854;BME280;48554;50.766;2.900;2022-09-16T08:34:18;100827.66;;;19.62;51.22
60854;BME280;48554;50.766;2.900;2022-09-16T08:36:38;100827.41;;;19.64;51.27
60854;BME280;48554;50.766;2.900;2022-09-16T08:38:58;100818.81;;;19.62;51.38
60854;BME280;48554;50.766;2.900;2022-09-16T08:46:54;100834.22;;;19.72;51.96
60854;BME280;48554;50.766;2.900;2022-09-16T08:51:54;100840.66;;;19.71;51.97
60854;BME280;48554;50.766;2.900;2022-09-16T08:54:33;100841.72;;;19.70;51.87
60854;BME280;48554;50.766;2.900;2022-09-16T08:56:59;100844.09;;;19.66;51.71
60854;BME280;48554;50.766;2.900;2022-09-16T08:59:24;100842.53;;;19.70;51.67
60854;BME280;48554;50.766;2.900;2022-09-16T09:01:57;100853.59;;;19.74;51.82
60854;BME280;48554;50.766;2.900;2022-09-16T09:04:20;100857.06;;;19.74;51.97
60854;BME280;48554;50.766;2.900;2022-09-16T09:09:34;100841.50;;;19.76;52.03
60854;BME280;48554;50.766;2.900;2022-09-16T09:12:09;100859.00;;;19.79;51.56
60854;BME280;48554;50.766;2.900;2022-09-16T09:14:45;100851.47;;;19.81;51.82
60854;BME280;48554;50.766;2.900;2022-09-16T09:20:43;100860.66;;;19.85;51.62
60854;BME280;48554;50.766;2.900;2022-09-16T09:23:11;100848.56;;;19.87;51.76
60854;BME280;48554;50.766;2.900;2022-09-16T09:31:29;100867.41;;;19.93;51.75
60854;BME280;48554;50.766;2.900;2022-09-16T09:41:15;100874.63;;;19.87;50.72
60854;BME280;48554;50.766;2.900;2022-09-16T09:46:39;100877.28;;;19.82;50.54
60854;BME280;48554;50.766;2.900;2022-09-16T09:49:18;100873.22;;;19.79;50.52
60854;BME280;48554;50.766;2.900;2022-09-16T09:51:46;100876.19;;;19.78;50.71
60854;BME280;48554;50.766;2.900;2022-09-16T09:56:44;100878.63;;;19.79;50.99
60854;BME280;48554;50.766;2.900;2022-09-16T09:59:37;100876.72;;;19.80;51.12
60854;BME280;48554;50.766;2.900;2022-09-16T10:02:01;100875.69;;;19.81;51.22
60854;BME280;48554;50.766;2.900;2022-09-16T10:04:22;100877.31;;;19.87;51.38
60854;BME280;48554;50.766;2.900;2022-09-16T10:06:43;100878.41;;;19.91;51.41
60854;BME280;48554;50.766;2.900;2022-09-16T10:09:04;100877.91;;;19.94;51.12
60854;BME280;48554;50.766;2.900;2022-09-16T10:11:27;100869.31;;;19.97;51.22
60854;BME280;48554;50.766;2.900;2022-09-16T10:13:53;100878.19;;;19.98;51.14
60854;BME280;48554;50.766;2.900;2022-09-16T10:16:17;100882.78;;;19.97;51.14
60854;BME280;48554;50.766;2.900;2022-09-16T10:18:38;100875.22;;;19.99;51.15
60854;BME280;48554;50.766;2.900;2022-09-16T10:21:06;100881.16;;;20.01;51.19
60854;BME280;48554;50.766;2.900;2022-09-16T10:23:26;100870.97;;;20.03;51.17
60854;BME280;48554;50.766;2.900;2022-09-16T10:25:47;100869.06;;;20.04;51.31
60854;BME280;48554;50.766;2.900;2022-09-16T10:30:47;100872.56;;;20.04;51.23
60854;BME280;48554;50.766;2.900;2022-09-16T10:33:35;100875.53;;;20.03;50.89
60854;BME280;48554;50.766;2.900;2022-09-16T10:36:00;100865.84;;;20.02;50.33
60854;BME280;48554;50.766;2.900;2022-09-16T10:38:23;100865.59;;;20.03;50.67
60854;BME280;48554;50.766;2.900;2022-09-16T10:41:05;100865.88;;;20.07;51.15
60854;BME280;48554;50.766;2.900;2022-09-16T10:43:27;100865.88;;;20.07;51.11
60854;BME280;48554;50.766;2.900;2022-09-16T10:45:50;100879.06;;;20.08;51.16
60854;BME280;48554;50.766;2.900;2022-09-16T10:48:14;100881.75;;;20.08;51.23
60854;BME280;48554;50.766;2.900;2022-09-16T10:50:35;100880.13;;;20.07;51.13
60854;BME280;48554;50.766;2.900;2022-09-16T10:52:55;100884.97;;;20.05;50.27
60854;BME280;48554;50.766;2.900;2022-09-16T10:57:39;100895.13;;;19.98;50.15
60854;BME280;48554;50.766;2.900;2022-09-16T11:00:12;100882.22;;;19.95;50.11
60854;BME280;48554;50.766;2.900;2022-09-16T11:07:42;100888.63;;;19.89;50.15
60854;BME280;48554;50.766;2.900;2022-09-16T11:10:30;100885.38;;;19.87;49.78
60854;BME280;48554;50.766;2.900;2022-09-16T11:15:37;100889.16;;;19.86;49.65
60854;BME280;48554;50.766;2.900;2022-09-16T11:18:24;100884.03;;;19.84;49.77
60854;BME280;48554;50.766;2.900;2022-09-16T11:44:57;100898.81;;;19.87;49.59
60854;BME280;48554;50.766;2.900;2022-09-16T11:50:14;100913.09;;;19.87;49.55
60854;BME280;48554;50.766;2.900;2022-09-16T11:52:57;100914.44;;;19.85;49.37
60854;BME280;48554;50.766;2.900;2022-09-16T12:00:53;100906.38;;;19.85;49.90
60854;BME280;48554;50.766;2.900;2022-09-16T12:03:51;100899.38;;;19.89;50.21
60854;BME280;48554;50.766;2.900;2022-09-16T12:06:17;100901.81;;;19.91;50.39
60854;BME280;48554;50.766;2.900;2022-09-16T12:13:48;100911.53;;;19.97;50.18
60854;BME280;48554;50.766;2.900;2022-09-16T12:18:55;100924.19;;;20.01;50.56
60854;BME280;48554;50.766;2.900;2022-09-16T12:21:24;100920.44;;;20.02;50.58
60854;BME280;48554;50.766;2.900;2022-09-16T12:23:54;100919.38;;;20.03;50.58
60854;BME280;48554;50.766;2.900;2022-09-16T12:26:20;100916.44;;;20.05;50.41
60854;BME280;48554;50.766;2.900;2022-09-16T12:31:15;100919.69;;;20.07;50.48
60854;BME280;48554;50.766;2.900;2022-09-16T12:33:46;100915.09;;;20.07;50.51
60854;BME280;48554;50.766;2.900;2022-09-16T12:36:15;100919.41;;;20.08;50.15
60854;BME280;48554;50.766;2.900;2022-09-16T12:38:37;100910.78;;;20.06;50.49
60854;BME280;48554;50.766;2.900;2022-09-16T12:58:46;100916.19;;;20.12;50.40
60854;BME280;48554;50.766;2.900;2022-09-16T13:01:14;100919.94;;;20.10;50.10
60854;BME280;48554;50.766;2.900;2022-09-16T13:03:40;100917.50;;;20.09;49.96
60854;BME280;48554;50.766;2.900;2022-09-16T13:06:05;100911.88;;;20.10;50.36
60854;BME280;48554;50.766;2.900;2022-09-16T13:08:33;100918.06;;;20.11;49.95
60854;BME280;48554;50.766;2.900;2022-09-16T13:11:00;100912.44;;;20.13;49.79
60854;BME280;48554;50.766;2.900;2022-09-16T13:13:29;100905.97;;;20.14;49.89
60854;BME280;48554;50.766;2.900;2022-09-16T13:15:58;100905.97;;;20.14;50.41
60854;BME280;48554;50.766;2.900;2022-09-16T13:18:23;100917.53;;;20.14;50.25
60854;BME280;48554;50.766;2.900;2022-09-16T13:20:49;100910.56;;;20.13;50.00
60854;BME280;48554;50.766;2.900;2022-09-16T13:23:16;100905.72;;;20.15;50.06
60854;BME280;48554;50.766;2.900;2022-09-16T13:25:52;100919.72;;;20.17;49.95
60854;BME280;48554;50.766;2.900;2022-09-16T13:30:51;100917.84;;;20.18;50.29
60854;BME280;48554;50.766;2.900;2022-09-16T13:33:20;100914.91;;;20.19;50.25
60854;BME280;48554;50.766;2.900;2022-09-16T13:35:43;100915.72;;;20.20;50.15
60854;BME280;48554;50.766;2.900;2022-09-16T13:40:36;100927.81;;;20.22;50.12
60854;BME280;48554;50.766;2.900;2022-09-16T13:45:40;100929.72;;;20.22;50.05
60854;BME280;48554;50.766;2.900;2022-09-16T13:48:10;100926.47;;;20.20;50.63
60854;BME280;48554;50.766;2.900;2022-09-16T13:50:32;100917.31;;;20.21;50.32
60854;BME280;48554;50.766;2.900;2022-09-16T13:52:53;100917.31;;;20.21;50.43
60854;BME280;48554;50.766;2.900;2022-09-16T13:55:23;100907.63;;;20.20;50.02
60854;BME280;48554;50.766;2.900;2022-09-16T14:02:46;100921.09;;;20.20;49.84
60854;BME280;48554;50.766;2.900;2022-09-16T14:07:53;100930.75;;;20.21;50.10
60854;BME280;48554;50.766;2.900;2022-09-16T14:10:28;100933.44;;;20.21;49.34
60854;BME280;48554;50.766;2.900;2022-09-16T14:13:00;100934.25;;;20.21;49.24
60854;BME280;48554;50.766;2.900;2022-09-16T14:15:23;100934.00;;;20.23;49.49
60854;BME280;48554;50.766;2.900;2022-09-16T14:17:48;100945.84;;;20.22;49.27
60854;BME280;48554;50.766;2.900;2022-09-16T14:20:14;100956.63;;;20.22;49.28
60854;BME280;48554;50.766;2.900;2022-09-16T14:22:34;100956.63;;;20.22;49.41
60854;BME280;48554;50.766;2.900;2022-09-16T14:24:55;100968.19;;;20.22;49.67
60854;BME280;48554;50.766;2.900;2022-09-16T14:27:29;100973.56;;;20.22;49.46
60854;BME280;48554;50.766;2.900;2022-09-16T14:32:14;100973.25;;;20.19;48.96
60854;BME280;48554;50.766;2.900;2022-09-16T14:34:36;100984.78;;;20.14;48.28
60854;BME280;48554;50.766;2.900;2022-09-16T14:36:56;100978.88;;;20.12;48.49
60854;BME280;48554;50.766;2.900;2022-09-16T14:39:19;100967.00;;;20.08;48.32
60854;BME280;48554;50.766;2.900;2022-09-16T14:41:47;100970.50;;;20.08;48.59
60854;BME280;48554;50.766;2.900;2022-09-16T14:46:56;100955.44;;;20.07;48.40
60854;BME280;48554;50.766;2.900;2022-09-16T14:49:17;100950.06;;;20.07;48.61
60854;BME280;48554;50.766;2.900;2022-09-16T14:51:42;100953.81;;;20.06;48.76
60854;BME280;48554;50.766;2.900;2022-09-16T14:54:04;100966.69;;;20.04;48.87
60854;BME280;48554;50.766;2.900;2022-09-16T14:56:25;100982.56;;;20.01;48.97
60854;BME280;48554;50.766;2.900;2022-09-16T14:58:46;100987.69;;;20.02;49.32
60854;BME280;48554;50.766;2.900;2022-09-16T15:01:11;100985.25;;;20.01;49.34
60854;BME280;48554;50.766;2.900;2022-09-16T15:06:05;100965.31;;;19.97;49.36
60854;BME280;48554;50.766;2.900;2022-09-16T15:08:32;100954.56;;;19.97;49.26
60854;BME280;48554;50.766;2.900;2022-09-16T15:10:56;100955.06;;;19.94;49.05
60854;BME280;48554;50.766;2.900;2022-09-16T15:13:18;100958.00;;;19.92;48.81
60854;BME280;48554;50.766;2.900;2022-09-16T15:15:45;100964.47;;;19.91;48.79
60854;BME280;48554;50.766;2.900;2022-09-16T15:18:13;100953.16;;;19.89;48.65
60854;BME280;48554;50.766;2.900;2022-09-16T15:20:40;100958.28;;;19.91;48.72
60854;BME280;48554;50.766;2.900;2022-09-16T15:23:01;100967.69;;;19.88;48.65
60854;BME280;48554;50.766;2.900;2022-09-16T15:25:24;100968.25;;;19.90;48.64
60854;BME280;48554;50.766;2.900;2022-09-16T15:27:45;100969.56;;;19.87;48.62
60854;BME280;48554;50.766;2.900;2022-09-16T15:30:20;100970.94;;;19.90;48.83
60854;BME280;48554;50.766;2.900;2022-09-16T15:32:43;100968.47;;;19.88;48.76